createdAt,value
2018-05-21T00:00:28.263Z,58.78
2018-05-21T00:01:28.243Z,59.06
2018-05-21T00:02:28.243Z,58.49
2018-05-21T00:03:28.234Z,58.39
2018-05-21T00:04:28.221Z,58.87
2018-05-21T00:05:28.205Z,59.64
2018-05-21T00:06:28.186Z,59.64
2018-05-21T00:07:28.169Z,59.06
2018-05-21T00:08:28.296Z,59.26
2018-05-21T00:09:28.141Z,59.06
2018-05-21T00:10:28.128Z,59.26
2018-05-21T00:11:28.121Z,59.55
2018-05-21T00:12:28.112Z,59.83
2018-05-21T00:13:28.093Z,60.03
2018-05-21T00:14:28.078Z,59.36
2018-05-21T00:15:28.068Z,59.74
2018-05-21T00:16:28.062Z,59.36
2018-05-21T00:17:28.041Z,59.42
2018-05-21T00:18:28.129Z,60.00
2018-05-21T00:19:28.013Z,59.61
2018-05-21T00:20:28.003Z,60.19
2018-05-21T00:21:27.990Z,60.00
2018-05-21T00:22:27.978Z,60.09
2018-05-21T00:23:27.958Z,59.90
2018-05-21T00:24:28.055Z,60.28
2018-05-21T00:25:27.937Z,60.09
2018-05-21T00:26:27.949Z,60.00
2018-05-21T00:27:27.904Z,60.28
2018-05-21T00:28:27.994Z,59.61
2018-05-21T00:29:27.901Z,60.19
2018-05-21T00:30:27.972Z,60.38
2018-05-21T00:31:27.862Z,60.57
2018-05-21T00:32:27.845Z,60.38
2018-05-21T00:33:27.834Z,60.09
2018-05-21T00:34:27.819Z,60.09
2018-05-21T00:35:27.808Z,60.28
2018-05-21T00:36:27.788Z,60.57
2018-05-21T00:37:27.783Z,60.47
2018-05-21T00:38:27.760Z,60.96
2018-05-21T00:39:27.747Z,60.19
2018-05-21T00:40:27.734Z,59.90
2018-05-21T00:41:27.722Z,60.28
2018-05-21T00:42:27.712Z,60.57
2018-05-21T00:43:27.693Z,60.28
2018-05-21T00:44:27.682Z,60.28
2018-05-21T00:45:27.664Z,60.38
2018-05-21T00:46:27.660Z,60.67
2018-05-21T00:47:27.644Z,60.19
2018-05-21T00:48:27.628Z,60.47
2018-05-21T00:49:27.625Z,60.28
2018-05-21T00:50:27.602Z,60.57
2018-05-21T00:51:27.593Z,60.19
2018-05-21T00:52:27.579Z,60.28
2018-05-21T00:53:27.561Z,60.67
2018-05-21T00:54:27.548Z,60.57
2018-05-21T00:55:27.528Z,60.67
2018-05-21T00:56:27.523Z,59.90
2018-05-21T00:57:27.513Z,60.19
2018-05-21T00:58:27.493Z,60.28
2018-05-21T00:59:27.483Z,60.28
2018-05-21T01:00:27.466Z,60.76
2018-05-21T01:01:27.447Z,60.76
2018-05-21T01:02:27.443Z,60.86
2018-05-21T01:03:27.428Z,61.63
2018-05-21T01:04:27.413Z,61.15
2018-05-21T01:05:27.400Z,60.67
2018-05-21T01:06:27.393Z,60.47
2018-05-21T01:07:27.377Z,61.63
2018-05-21T01:08:27.358Z,61.63
2018-05-21T01:09:27.345Z,61.15
2018-05-21T01:10:27.335Z,60.76
2018-05-21T01:11:27.320Z,60.57
2018-05-21T01:12:27.310Z,60.57
2018-05-21T01:13:27.296Z,60.47
2018-05-21T01:14:27.278Z,60.09
2018-05-21T01:15:27.272Z,60.57
2018-05-21T01:16:27.252Z,60.00
2018-05-21T01:17:27.238Z,60.00
2018-05-21T01:18:27.217Z,60.00
2018-05-21T01:19:27.214Z,60.28
2018-05-21T01:20:27.198Z,60.19
2018-05-21T01:21:27.179Z,59.52
2018-05-21T01:22:27.178Z,59.71
2018-05-21T01:23:27.154Z,59.42
2018-05-21T01:24:27.142Z,60.28
2018-05-21T01:25:27.126Z,59.80
2018-05-21T01:26:27.116Z,59.52
2018-05-21T01:27:27.096Z,59.90
2018-05-21T01:28:27.093Z,60.00
2018-05-21T01:29:27.074Z,60.00
2018-05-21T01:30:27.057Z,59.33
2018-05-21T01:31:27.047Z,59.68
2018-05-21T01:32:27.035Z,59.58
2018-05-21T01:33:27.022Z,59.87
2018-05-21T01:34:27.001Z,59.68
2018-05-21T01:35:27.012Z,60.16
2018-05-21T01:36:26.983Z,60.06
2018-05-21T01:37:26.984Z,59.87
2018-05-21T01:38:26.952Z,59.48
2018-05-21T01:39:26.962Z,59.77
2018-05-21T01:40:26.928Z,59.71
2018-05-21T01:41:26.906Z,59.42
2018-05-21T01:42:26.900Z,59.42
2018-05-21T01:43:26.881Z,59.77
2018-05-21T01:44:26.862Z,58.72
2018-05-21T01:45:26.907Z,59.71
2018-05-21T01:46:26.840Z,59.77
2018-05-21T01:47:26.929Z,59.48
2018-05-21T01:48:26.808Z,59.42
2018-05-21T01:49:26.795Z,59.39
2018-05-21T01:50:26.785Z,59.97
2018-05-21T01:51:26.818Z,60.06
2018-05-21T01:52:26.757Z,59.68
2018-05-21T01:53:26.803Z,59.39
2018-05-21T01:54:26.728Z,59.39
2018-05-21T01:55:26.721Z,59.48
2018-05-21T01:56:26.703Z,59.58
2018-05-21T01:57:26.789Z,59.58
2018-05-21T01:58:26.680Z,59.30
2018-05-21T01:59:26.714Z,59.97
2018-05-21T02:00:26.649Z,60.16
2018-05-21T02:01:26.650Z,59.87
2018-05-21T02:02:26.624Z,59.77
2018-05-21T02:03:26.659Z,60.06
2018-05-21T02:04:26.591Z,60.35
2018-05-21T02:05:26.576Z,60.06
2018-05-21T02:06:26.561Z,60.06
2018-05-21T02:07:26.543Z,60.64
2018-05-21T02:08:26.578Z,60.54
2018-05-21T02:09:26.517Z,60.13
2018-05-21T02:10:26.512Z,60.54
2018-05-21T02:11:26.500Z,60.93
2018-05-21T02:12:26.479Z,61.11
2018-05-21T02:13:26.466Z,61.21
2018-05-21T02:14:26.454Z,60.73
2018-05-21T02:15:26.440Z,61.28
2018-05-21T02:16:26.428Z,61.31
2018-05-21T02:17:26.431Z,60.93
2018-05-21T02:18:26.398Z,61.57
2018-05-21T02:19:26.383Z,61.40
2018-05-21T02:20:26.373Z,61.50
2018-05-21T02:21:26.366Z,61.57
2018-05-21T02:22:26.338Z,61.28
2018-05-21T02:23:26.327Z,61.08
2018-05-21T02:24:26.322Z,61.57
2018-05-21T02:25:26.312Z,61.08
2018-05-21T02:26:26.281Z,61.76
2018-05-21T02:27:26.279Z,61.57
2018-05-21T02:28:26.260Z,61.57
2018-05-21T02:29:26.246Z,62.33
2018-05-21T02:30:26.233Z,61.94
2018-05-21T02:31:26.221Z,62.04
2018-05-21T02:32:26.205Z,61.85
2018-05-21T02:33:26.189Z,62.23
2018-05-21T02:34:26.171Z,61.94
2018-05-21T02:35:26.165Z,61.57
2018-05-21T02:36:26.141Z,61.94
2018-05-21T02:37:26.128Z,61.66
2018-05-21T02:38:26.116Z,62.71
2018-05-21T02:39:26.098Z,62.43
2018-05-21T02:40:26.092Z,62.43
2018-05-21T02:41:26.085Z,62.71
2018-05-21T02:42:26.064Z,62.14
2018-05-21T02:43:26.053Z,61.85
2018-05-21T02:44:26.038Z,62.43
2018-05-21T02:45:26.018Z,62.52
2018-05-21T02:46:26.009Z,61.94
2018-05-21T02:47:25.992Z,62.04
2018-05-21T02:48:25.977Z,61.66
2018-05-21T02:49:25.963Z,61.66
2018-05-21T02:50:25.948Z,62.33
2018-05-21T02:51:25.935Z,62.62
2018-05-21T02:52:25.932Z,62.04
2018-05-21T02:53:25.907Z,61.47
2018-05-21T02:54:25.885Z,61.94
2018-05-21T02:55:25.882Z,61.85
2018-05-21T02:56:25.869Z,61.76
2018-05-21T02:57:25.846Z,61.85
2018-05-21T02:58:25.837Z,62.52
2018-05-21T02:59:25.821Z,62.52
2018-05-21T03:00:25.812Z,61.94
2018-05-21T03:01:25.796Z,62.23
2018-05-21T03:02:25.780Z,62.14
2018-05-21T03:03:25.770Z,61.94
2018-05-21T03:04:25.752Z,61.76
2018-05-21T03:05:25.751Z,62.40
2018-05-21T03:06:25.725Z,62.68
2018-05-21T03:07:25.706Z,62.49
2018-05-21T03:08:25.694Z,62.20
2018-05-21T03:09:25.681Z,62.43
2018-05-21T03:10:25.664Z,62.11
2018-05-21T03:11:25.645Z,62.97
2018-05-21T03:12:25.642Z,62.97
2018-05-21T03:13:25.624Z,62.90
2018-05-21T03:14:25.613Z,63.26
2018-05-21T03:15:25.594Z,62.97
2018-05-21T03:16:25.583Z,63.06
2018-05-21T03:17:25.567Z,62.97
2018-05-21T03:18:25.552Z,63.64
2018-05-21T03:19:25.539Z,62.77
2018-05-21T03:20:25.574Z,63.45
2018-05-21T03:21:25.508Z,63.26
2018-05-21T03:22:25.543Z,63.06
2018-05-21T03:23:25.472Z,63.06
2018-05-21T03:24:25.524Z,63.35
2018-05-21T03:25:25.453Z,63.93
2018-05-21T03:26:25.496Z,64.12
2018-05-21T03:27:25.420Z,64.02
2018-05-21T03:28:25.471Z,63.93
2018-05-21T03:29:25.390Z,63.93
2018-05-21T03:30:25.479Z,64.22
2018-05-21T03:31:25.373Z,64.22
2018-05-21T03:32:25.401Z,64.31
2018-05-21T03:33:25.338Z,64.79
2018-05-21T03:34:25.438Z,64.31
2018-05-21T03:35:25.312Z,64.02
2018-05-21T03:36:25.294Z,64.12
2018-05-21T03:37:25.277Z,63.83
2018-05-21T03:38:25.270Z,64.02
2018-05-21T03:39:25.256Z,64.31
2018-05-21T03:40:25.241Z,63.83
2018-05-21T03:41:25.221Z,64.02
2018-05-21T03:42:25.263Z,64.22
2018-05-21T03:43:25.200Z,63.83
2018-05-21T03:44:25.177Z,63.93
2018-05-21T03:45:25.161Z,63.73
2018-05-21T03:46:25.203Z,64.02
2018-05-21T03:47:25.133Z,63.64
2018-05-21T03:48:25.119Z,62.87
2018-05-21T03:49:25.106Z,63.83
2018-05-21T03:50:25.089Z,63.96
2018-05-21T03:51:25.089Z,63.76
2018-05-21T03:52:25.061Z,63.48
2018-05-21T03:53:25.048Z,63.26
2018-05-21T03:54:25.032Z,63.93
2018-05-21T03:55:25.022Z,63.06
2018-05-21T03:56:25.003Z,63.10
2018-05-21T03:57:24.994Z,63.39
2018-05-21T03:58:24.971Z,63.00
2018-05-21T03:59:24.958Z,63.10
2018-05-21T04:00:24.946Z,64.15
2018-05-21T04:01:24.927Z,63.00
2018-05-21T04:02:24.920Z,63.19
2018-05-21T04:03:24.910Z,63.48
2018-05-21T04:04:24.976Z,63.00
2018-05-21T04:05:24.881Z,63.19
2018-05-21T04:06:24.862Z,63.00
2018-05-21T04:07:24.844Z,63.00
2018-05-21T04:08:24.824Z,62.90
2018-05-21T04:09:24.817Z,63.19
2018-05-21T04:10:24.802Z,63.86
2018-05-21T04:11:24.836Z,64.05
2018-05-21T04:12:24.774Z,63.96
2018-05-21T04:13:24.768Z,63.48
2018-05-21T04:14:24.748Z,63.57
2018-05-21T04:15:24.729Z,63.29
2018-05-21T04:16:24.720Z,64.15
2018-05-21T04:17:24.709Z,63.67
2018-05-21T04:18:24.687Z,63.10
2018-05-21T04:19:24.667Z,63.39
2018-05-21T04:20:24.663Z,64.12
2018-05-21T04:21:24.643Z,64.92
2018-05-21T04:22:24.633Z,64.53
2018-05-21T04:23:24.610Z,64.05
2018-05-21T04:24:24.597Z,64.12
2018-05-21T04:25:24.591Z,64.63
2018-05-21T04:26:24.568Z,64.69
2018-05-21T04:27:24.560Z,64.50
2018-05-21T04:28:24.541Z,64.15
2018-05-21T04:29:24.533Z,64.69
2018-05-21T04:30:24.521Z,64.88
2018-05-21T04:31:24.502Z,64.72
2018-05-21T04:32:24.490Z,64.92
2018-05-21T04:33:24.474Z,64.53
2018-05-21T04:34:24.454Z,64.82
2018-05-21T04:35:24.438Z,64.53
2018-05-21T04:36:24.456Z,64.53
2018-05-21T04:37:24.417Z,63.96
2018-05-21T04:38:24.403Z,63.96
2018-05-21T04:39:24.393Z,64.72
2018-05-21T04:40:24.373Z,65.01
2018-05-21T04:41:24.358Z,63.96
2018-05-21T04:42:24.336Z,64.43
2018-05-21T04:43:24.329Z,63.96
2018-05-21T04:44:24.314Z,64.43
2018-05-21T04:45:24.301Z,64.53
2018-05-21T04:46:24.288Z,63.96
2018-05-21T04:47:24.274Z,64.53
2018-05-21T04:48:24.257Z,64.53
2018-05-21T04:49:24.254Z,64.63
2018-05-21T04:50:24.231Z,64.72
2018-05-21T04:51:24.219Z,65.49
2018-05-21T04:52:24.203Z,65.49
2018-05-21T04:53:24.193Z,65.39
2018-05-21T04:54:24.167Z,65.58
2018-05-21T04:55:24.164Z,64.82
2018-05-21T04:56:24.144Z,65.39
2018-05-21T04:57:24.132Z,64.82
2018-05-21T04:58:24.116Z,65.11
2018-05-21T04:59:24.100Z,65.49
2018-05-21T05:00:24.089Z,65.39
2018-05-21T05:01:24.074Z,65.97
2018-05-21T05:02:24.065Z,64.92
2018-05-21T05:03:24.041Z,65.49
2018-05-21T05:04:24.034Z,65.58
2018-05-21T05:05:24.067Z,65.39
2018-05-21T05:06:24.000Z,65.58
2018-05-21T05:07:24.025Z,65.68
2018-05-21T05:08:23.973Z,66.29
2018-05-21T05:09:23.993Z,65.49
2018-05-21T05:10:23.938Z,65.39
2018-05-21T05:11:24.035Z,65.42
2018-05-21T05:12:23.916Z,65.97
2018-05-21T05:13:23.956Z,65.68
2018-05-21T05:14:23.896Z,65.81
2018-05-21T05:15:23.941Z,65.39
2018-05-21T05:16:23.865Z,65.81
2018-05-21T05:17:23.863Z,65.33
2018-05-21T05:18:23.829Z,66.00
2018-05-21T05:19:23.818Z,66.00
2018-05-21T05:20:23.798Z,65.71
2018-05-21T05:21:23.841Z,65.62
2018-05-21T05:22:23.781Z,66.09
2018-05-21T05:23:23.764Z,65.81
2018-05-21T05:24:23.751Z,65.62
2018-05-21T05:25:23.783Z,65.81
2018-05-21T05:26:23.721Z,66.00
2018-05-21T05:27:23.706Z,65.42
2018-05-21T05:28:23.698Z,65.71
2018-05-21T05:29:23.683Z,66.22
2018-05-21T05:30:23.664Z,66.71
2018-05-21T05:31:23.645Z,65.55
2018-05-21T05:32:23.636Z,64.98
2018-05-21T05:33:23.623Z,66.13
2018-05-21T05:34:23.609Z,65.75
2018-05-21T05:35:23.593Z,65.94
2018-05-21T05:36:23.578Z,65.84
2018-05-21T05:37:23.575Z,65.65
2018-05-21T05:38:23.552Z,65.84
2018-05-21T05:39:23.539Z,65.75
2018-05-21T05:40:23.523Z,65.84
2018-05-21T05:41:23.510Z,65.94
2018-05-21T05:42:23.494Z,66.03
2018-05-21T05:43:23.483Z,65.84
2018-05-21T05:44:23.467Z,65.65
2018-05-21T05:45:23.461Z,65.46
2018-05-21T05:46:23.448Z,65.46
2018-05-21T05:47:23.426Z,65.68
2018-05-21T05:48:23.423Z,65.78
2018-05-21T05:49:23.403Z,65.49
2018-05-21T05:50:23.393Z,65.78
2018-05-21T05:51:23.384Z,65.20
2018-05-21T05:52:23.362Z,65.49
2018-05-21T05:53:23.351Z,65.59
2018-05-21T05:54:23.342Z,65.78
2018-05-21T05:55:23.326Z,65.11
2018-05-21T05:56:23.307Z,64.63
2018-05-21T05:57:23.298Z,65.78
2018-05-21T05:58:23.287Z,65.49
2018-05-21T05:59:23.274Z,65.78
2018-05-21T06:00:23.256Z,65.59
2018-05-21T06:01:23.251Z,65.43
2018-05-21T06:02:23.227Z,65.01
2018-05-21T06:03:23.216Z,64.76
2018-05-21T06:04:23.195Z,65.52
2018-05-21T06:05:23.189Z,65.88
2018-05-21T06:06:23.173Z,65.59
2018-05-21T06:07:23.173Z,65.72
2018-05-21T06:08:23.144Z,66.39
2018-05-21T06:09:23.134Z,65.81
2018-05-21T06:10:23.121Z,65.81
2018-05-21T06:11:23.112Z,65.72
2018-05-21T06:12:23.103Z,65.05
2018-05-21T06:13:23.087Z,65.14
2018-05-21T06:14:23.067Z,65.05
2018-05-21T06:15:23.058Z,65.14
2018-05-21T06:16:23.041Z,65.05
2018-05-21T06:17:23.032Z,66.00
2018-05-21T06:18:23.013Z,65.05
2018-05-21T06:19:23.008Z,64.98
2018-05-21T06:20:23.005Z,65.75
2018-05-21T06:21:22.980Z,66.03
2018-05-21T06:22:22.962Z,66.80
2018-05-21T06:23:22.945Z,65.08
2018-05-21T06:24:22.939Z,64.98
2018-05-21T06:25:22.919Z,65.27
2018-05-21T06:26:22.916Z,64.50
2018-05-21T06:27:22.905Z,64.12
2018-05-21T06:28:22.890Z,63.54
2018-05-21T06:29:22.873Z,64.34
2018-05-21T06:30:22.867Z,64.31
2018-05-21T06:31:22.851Z,65.01
2018-05-21T06:32:22.836Z,64.25
2018-05-21T06:33:22.816Z,63.48
2018-05-21T06:34:22.942Z,63.86
2018-05-21T06:35:22.793Z,62.90
2018-05-21T06:36:22.792Z,64.05
2018-05-21T06:37:22.771Z,63.57
2018-05-21T06:38:22.752Z,64.05
2018-05-21T06:39:22.740Z,64.43
2018-05-21T06:40:22.737Z,64.15
2018-05-21T06:41:22.713Z,64.53
2018-05-21T06:42:22.702Z,63.19
2018-05-21T06:43:22.694Z,62.90
2018-05-21T06:44:22.678Z,63.19
2018-05-21T06:45:22.667Z,63.57
2018-05-21T06:46:22.663Z,63.57
2018-05-21T06:47:22.643Z,63.28
2018-05-21T06:48:22.630Z,63.28
2018-05-21T06:49:22.617Z,63.32
2018-05-21T06:50:22.604Z,63.02
2018-05-21T06:51:22.646Z,63.22
2018-05-21T06:52:22.588Z,62.55
2018-05-21T06:53:22.572Z,62.64
2018-05-21T06:54:22.560Z,62.64
2018-05-21T06:55:22.540Z,62.64
2018-05-21T06:56:22.527Z,63.02
2018-05-21T06:57:22.516Z,62.87
2018-05-21T06:58:22.505Z,62.48
2018-05-21T06:59:22.503Z,61.91
2018-05-21T07:00:22.480Z,62.87
2018-05-21T07:01:22.467Z,62.29
2018-05-21T07:02:22.458Z,62.58
2018-05-21T07:03:22.447Z,62.00
2018-05-21T07:04:22.430Z,61.91
2018-05-21T07:05:22.421Z,61.91
2018-05-21T07:06:22.409Z,61.91
2018-05-21T07:07:22.396Z,61.94
2018-05-21T07:08:22.378Z,61.94
2018-05-21T07:09:22.377Z,62.13
2018-05-21T07:10:22.363Z,62.03
2018-05-21T07:11:22.348Z,61.07
2018-05-21T07:12:22.342Z,61.07
2018-05-21T07:13:22.326Z,60.59
2018-05-21T07:14:22.310Z,60.85
2018-05-21T07:15:22.301Z,60.88
2018-05-21T07:16:22.295Z,61.46
2018-05-21T07:17:22.281Z,60.59
2018-05-21T07:18:22.268Z,61.74
2018-05-21T07:19:22.246Z,62.03
2018-05-21T07:20:22.243Z,60.78
2018-05-21T07:21:22.231Z,60.59
2018-05-21T07:22:22.218Z,60.42
2018-05-21T07:23:22.207Z,60.30
2018-05-21T07:24:22.281Z,60.97
2018-05-21T07:25:22.234Z,61.55
2018-05-21T07:26:22.167Z,60.81
2018-05-21T07:27:22.164Z,60.72
2018-05-21T07:28:22.149Z,60.33
2018-05-21T07:29:22.139Z,61.49
2018-05-21T07:30:22.125Z,60.62
2018-05-21T07:31:22.169Z,60.14
2018-05-21T07:32:22.095Z,60.33
2018-05-21T07:33:22.097Z,59.85
2018-05-21T07:34:22.081Z,60.33
2018-05-21T07:35:22.065Z,60.36
2018-05-21T07:36:22.058Z,60.65
2018-05-21T07:37:22.192Z,60.17
2018-05-21T07:38:22.026Z,60.27
2018-05-21T07:39:22.022Z,59.97
2018-05-21T07:40:22.011Z,60.87
2018-05-21T07:41:21.998Z,60.58
2018-05-21T07:42:21.984Z,60.39
2018-05-21T07:43:21.982Z,60.00
2018-05-21T07:44:21.971Z,60.03
2018-05-21T07:45:21.954Z,60.10
2018-05-21T07:46:21.941Z,59.04
2018-05-21T07:47:21.934Z,58.95
2018-05-21T07:48:21.922Z,59.45
2018-05-21T07:49:21.908Z,59.94
2018-05-21T07:50:21.895Z,60.32
2018-05-21T07:51:21.981Z,60.13
2018-05-21T07:52:21.876Z,59.07
2018-05-21T07:53:21.871Z,58.49
2018-05-21T07:54:21.861Z,58.59
2018-05-21T07:55:21.848Z,58.88
2018-05-21T07:56:21.829Z,59.39
2018-05-21T07:57:21.816Z,59.10
2018-05-21T07:58:21.857Z,58.72
2018-05-21T07:59:21.794Z,58.72
2018-05-21T08:00:21.790Z,58.94
2018-05-21T08:01:21.775Z,58.04
2018-05-21T08:02:21.768Z,57.17
2018-05-21T08:03:21.762Z,57.59
2018-05-21T08:04:21.746Z,57.68
2018-05-21T08:05:21.750Z,56.81
2018-05-21T08:06:21.727Z,57.01
2018-05-21T08:07:21.717Z,57.01
2018-05-21T08:08:21.707Z,57.62
2018-05-21T08:09:21.692Z,56.91
2018-05-21T08:10:21.685Z,56.91
2018-05-21T08:11:21.675Z,56.72
2018-05-21T08:12:21.675Z,57.42
2018-05-21T08:13:21.662Z,58.48
2018-05-21T08:14:21.658Z,57.04
2018-05-21T08:15:21.633Z,55.30
2018-05-21T08:16:21.627Z,56.39
2018-05-21T08:17:21.617Z,56.87
2018-05-21T08:18:21.610Z,55.35
2018-05-21T08:19:21.601Z,54.07
2018-05-21T08:20:21.591Z,54.84
2018-05-21T08:21:21.582Z,55.52
2018-05-21T08:22:21.581Z,55.35
2018-05-21T08:23:21.572Z,55.45
2018-05-21T08:24:21.556Z,55.35
2018-05-21T08:25:21.547Z,55.16
2018-05-21T08:26:21.547Z,56.93
2018-05-21T08:27:21.537Z,54.71
2018-05-21T08:28:21.533Z,53.57
2018-05-21T08:29:21.525Z,53.96
2018-05-21T08:30:21.522Z,52.80
2018-05-21T08:31:21.521Z,54.73
2018-05-21T08:32:21.512Z,54.44
2018-05-21T08:33:21.510Z,55.24
2018-05-21T08:34:21.502Z,52.73
2018-05-21T08:35:21.495Z,52.53
2018-05-21T08:36:21.492Z,51.56
2018-05-21T08:37:21.496Z,51.18
2018-05-21T08:38:21.498Z,51.56
2018-05-21T08:39:21.488Z,50.50
2018-05-21T08:40:21.479Z,51.44
2018-05-21T08:41:21.477Z,51.86
2018-05-21T08:42:21.474Z,51.18
2018-05-21T08:43:21.481Z,51.28
2018-05-21T08:44:21.471Z,50.04
2018-05-21T08:45:21.471Z,49.75
2018-05-21T08:46:21.470Z,49.29
2018-05-21T08:47:21.469Z,49.87
2018-05-21T08:48:21.470Z,50.19
2018-05-21T08:49:21.464Z,49.34
2018-05-21T08:50:21.460Z,47.50
2018-05-21T08:51:21.458Z,46.04
2018-05-21T08:52:21.553Z,46.14
2018-05-21T08:53:21.463Z,46.14
2018-05-21T08:54:21.464Z,46.16
2018-05-21T08:55:21.461Z,46.09
2018-05-21T08:56:21.461Z,45.04
2018-05-21T08:57:21.461Z,45.14
2018-05-21T08:58:21.470Z,44.38
2018-05-21T08:59:21.461Z,44.60
2018-05-21T09:00:21.550Z,44.65
2018-05-21T09:01:21.458Z,41.85
2018-05-21T09:02:21.458Z,40.93
2018-05-21T09:03:21.461Z,41.78
2018-05-21T09:04:21.461Z,42.23
2018-05-21T09:05:21.510Z,43.08
2018-05-21T09:06:21.465Z,44.27
2018-05-21T09:07:21.471Z,43.18
2018-05-21T09:08:21.471Z,43.54
2018-05-21T09:09:21.464Z,43.78
2018-05-21T09:10:21.470Z,43.22
2018-05-21T09:11:21.464Z,41.39
2018-05-21T09:12:21.477Z,41.78
2018-05-21T09:13:21.468Z,40.52
2018-05-21T09:14:21.467Z,40.37
2018-05-21T09:15:21.464Z,39.78
2018-05-21T09:16:21.528Z,39.80
2018-05-21T09:17:21.464Z,40.64
2018-05-21T09:18:21.470Z,41.61
2018-05-21T09:19:21.467Z,41.14
2018-05-21T09:20:21.471Z,40.68
2018-05-21T09:21:21.465Z,40.68
2018-05-21T09:22:21.469Z,39.86
2018-05-21T09:23:21.465Z,40.37
2018-05-21T09:24:21.524Z,40.37
2018-05-21T09:25:21.459Z,39.51
2018-05-21T09:26:21.556Z,40.17
2018-05-21T09:27:21.458Z,40.19
2018-05-21T09:28:21.512Z,38.40
2018-05-21T09:29:21.462Z,39.57
2018-05-21T09:30:21.518Z,39.29
2018-05-21T09:31:21.453Z,38.42
2018-05-21T09:32:21.510Z,38.91
2018-05-21T09:33:21.461Z,38.50
2018-05-21T09:34:21.448Z,39.00
2018-05-21T09:35:21.446Z,38.34
2018-05-21T09:36:21.502Z,38.03
2018-05-21T09:37:21.446Z,38.52
2018-05-21T09:38:21.452Z,37.97
2018-05-21T09:39:21.433Z,37.00
2018-05-21T09:40:21.432Z,36.82
2018-05-21T09:41:21.436Z,36.71
2018-05-21T09:42:21.440Z,37.08
2018-05-21T09:43:21.427Z,37.14
2018-05-21T09:44:21.430Z,37.45
2018-05-21T09:45:21.428Z,36.98
2018-05-21T09:46:21.420Z,36.28
2018-05-21T09:47:21.416Z,36.71
2018-05-21T09:48:21.417Z,36.30
2018-05-21T09:49:21.416Z,36.30
2018-05-21T09:50:21.410Z,35.46
2018-05-21T09:51:21.407Z,35.46
2018-05-21T09:52:21.401Z,35.38
2018-05-21T09:53:21.446Z,34.74
2018-05-21T09:54:21.396Z,36.65
2018-05-21T09:55:21.391Z,35.99
2018-05-21T09:56:21.384Z,36.38
2018-05-21T09:57:21.401Z,35.21
2018-05-21T09:58:21.373Z,35.15
2018-05-21T09:59:21.376Z,35.39
2018-05-21T10:00:21.366Z,36.36
2018-05-21T10:01:21.417Z,36.85
2018-05-21T10:02:21.356Z,35.97
2018-05-21T10:03:21.350Z,35.50
2018-05-21T10:04:21.350Z,34.52
2018-05-21T10:05:21.348Z,34.42
2018-05-21T10:06:21.340Z,33.95
2018-05-21T10:07:21.340Z,34.12
2018-05-21T10:08:21.327Z,34.72
2018-05-21T10:09:21.331Z,34.05
2018-05-21T10:10:21.321Z,33.46
2018-05-21T10:11:21.314Z,34.79
2018-05-21T10:12:21.311Z,34.88
2018-05-21T10:13:21.308Z,35.49
2018-05-21T10:14:21.298Z,35.58
2018-05-21T10:15:21.298Z,35.31
2018-05-21T10:16:21.285Z,34.56
2018-05-21T10:17:21.281Z,34.17
2018-05-21T10:18:21.275Z,34.69
2018-05-21T10:19:21.274Z,33.15
2018-05-21T10:20:21.270Z,34.32
2018-05-21T10:21:21.260Z,33.44
2018-05-21T10:22:21.254Z,33.36
2018-05-21T10:23:21.250Z,32.35
2018-05-21T10:24:21.251Z,32.73
2018-05-21T10:25:21.240Z,32.81
2018-05-21T10:26:21.290Z,33.53
2018-05-21T10:27:21.222Z,32.55
2018-05-21T10:28:21.269Z,32.35
2018-05-21T10:29:21.216Z,32.42
2018-05-21T10:30:21.279Z,32.40
2018-05-21T10:31:21.202Z,32.68
2018-05-21T10:32:21.344Z,33.64
2018-05-21T10:33:21.189Z,34.33
2018-05-21T10:34:21.178Z,33.67
2018-05-21T10:35:21.174Z,33.09
2018-05-21T10:36:21.170Z,33.58
2018-05-21T10:37:21.260Z,33.36
2018-05-21T10:38:21.161Z,33.34
2018-05-21T10:39:21.151Z,33.26
2018-05-21T10:40:21.148Z,33.73
2018-05-21T10:41:21.138Z,33.73
2018-05-21T10:42:21.141Z,33.83
2018-05-21T10:43:21.128Z,34.42
2018-05-21T10:44:21.122Z,33.72
2018-05-21T10:45:21.113Z,33.81
2018-05-21T10:46:21.107Z,33.53
2018-05-21T10:47:21.104Z,33.33
2018-05-21T10:48:21.092Z,33.72
2018-05-21T10:49:21.095Z,34.59
2018-05-21T10:50:21.086Z,33.33
2018-05-21T10:51:21.109Z,33.23
2018-05-21T10:52:21.070Z,33.62
2018-05-21T10:53:21.067Z,32.34
2018-05-21T10:54:21.061Z,33.81
2018-05-21T10:55:21.052Z,32.55
2018-05-21T10:56:21.142Z,32.81
2018-05-21T10:57:21.041Z,34.25
2018-05-21T10:58:21.038Z,34.64
2018-05-21T10:59:21.025Z,33.98
2018-05-21T11:00:21.016Z,34.36
2018-05-21T11:01:21.016Z,34.28
2018-05-21T11:02:21.003Z,34.11
2018-05-21T11:03:21.009Z,32.54
2018-05-21T11:04:20.997Z,33.23
2018-05-21T11:05:20.990Z,33.25
2018-05-21T11:06:20.981Z,31.88
2018-05-21T11:07:20.974Z,31.68
2018-05-21T11:08:20.968Z,32.07
2018-05-21T11:09:20.965Z,33.25
2018-05-21T11:10:20.956Z,32.96
2018-05-21T11:11:20.945Z,32.37
2018-05-21T11:12:20.946Z,32.86
2018-05-21T11:13:20.946Z,33.75
2018-05-21T11:14:20.934Z,32.76
2018-05-21T11:15:20.922Z,32.57
2018-05-21T11:16:20.920Z,32.65
2018-05-21T11:17:20.910Z,33.53
2018-05-21T11:18:20.896Z,33.73
2018-05-21T11:19:20.901Z,32.84
2018-05-21T11:20:20.890Z,32.45
2018-05-21T11:21:20.887Z,32.35
2018-05-21T11:22:20.880Z,32.35
2018-05-21T11:23:20.876Z,32.55
2018-05-21T11:24:20.867Z,32.76
2018-05-21T11:25:20.862Z,33.44
2018-05-21T11:26:20.851Z,32.29
2018-05-21T11:27:20.862Z,31.98
2018-05-21T11:28:20.846Z,31.00
2018-05-21T11:29:20.840Z,31.38
2018-05-21T11:30:20.830Z,31.48
2018-05-21T11:31:20.824Z,31.29
2018-05-21T11:32:20.814Z,31.29
2018-05-21T11:33:20.811Z,31.19
2018-05-21T11:34:20.804Z,30.12
2018-05-21T11:35:20.800Z,30.58
2018-05-21T11:36:20.787Z,31.37
2018-05-21T11:37:20.785Z,30.98
2018-05-21T11:38:20.772Z,32.17
2018-05-21T11:39:20.766Z,31.60
2018-05-21T11:40:20.769Z,30.80
2018-05-21T11:41:20.759Z,31.40
2018-05-21T11:42:20.759Z,30.91
2018-05-21T11:43:20.740Z,31.58
2018-05-21T11:44:20.740Z,32.76
2018-05-21T11:45:20.727Z,33.36
2018-05-21T11:46:20.849Z,31.50
2018-05-21T11:47:20.720Z,32.39
2018-05-21T11:48:20.718Z,31.82
2018-05-21T11:49:20.715Z,30.74
2018-05-21T11:50:20.705Z,32.49
2018-05-21T11:51:20.701Z,31.40
2018-05-21T11:52:20.692Z,31.58
2018-05-21T11:53:20.690Z,31.68
2018-05-21T11:54:20.675Z,31.00
2018-05-21T11:55:20.666Z,31.48
2018-05-21T11:56:20.667Z,31.87
2018-05-21T11:57:20.660Z,31.48
2018-05-21T11:58:20.647Z,30.59
2018-05-21T11:59:20.659Z,31.66
2018-05-21T12:00:20.637Z,31.47
2018-05-21T12:01:20.632Z,31.55
2018-05-21T12:02:20.628Z,31.35
2018-05-21T12:03:20.625Z,31.37
2018-05-21T12:04:20.619Z,31.48
2018-05-21T12:05:20.612Z,30.02
2018-05-21T12:06:20.603Z,31.48
2018-05-21T12:07:20.601Z,30.11
2018-05-21T12:08:20.592Z,30.69
2018-05-21T12:09:20.582Z,31.27
2018-05-21T12:10:20.580Z,31.37
2018-05-21T12:11:20.580Z,30.90
2018-05-21T12:12:20.567Z,30.61
2018-05-21T12:13:20.558Z,31.00
2018-05-21T12:14:20.552Z,31.47
2018-05-21T12:15:20.545Z,31.87
2018-05-21T12:16:20.541Z,33.33
2018-05-21T12:17:20.532Z,33.25
2018-05-21T12:18:20.531Z,32.20
2018-05-21T12:19:20.522Z,31.13
2018-05-21T12:20:20.512Z,30.15
2018-05-21T12:21:20.506Z,31.01
2018-05-21T12:22:20.568Z,31.22
2018-05-21T12:23:20.500Z,31.50
2018-05-21T12:24:20.483Z,31.38
2018-05-21T12:25:20.528Z,32.17
2018-05-21T12:26:20.476Z,31.87
2018-05-21T12:27:20.567Z,31.48
2018-05-21T12:28:20.461Z,31.38
2018-05-21T12:29:20.458Z,31.57
2018-05-21T12:30:20.451Z,32.15
2018-05-21T12:31:20.451Z,31.45
2018-05-21T12:32:20.441Z,31.55
2018-05-21T12:33:20.436Z,31.35
2018-05-21T12:34:20.428Z,30.79
2018-05-21T12:35:20.414Z,31.29
2018-05-21T12:36:20.408Z,31.37
2018-05-21T12:37:20.408Z,31.58
2018-05-21T12:38:20.397Z,32.84
2018-05-21T12:39:20.388Z,33.14
2018-05-21T12:40:20.392Z,32.76
2018-05-21T12:41:20.377Z,33.07
2018-05-21T12:42:20.395Z,31.24
2018-05-21T12:43:20.367Z,32.23
2018-05-21T12:44:20.371Z,28.79
2018-05-21T12:45:20.362Z,28.19
2018-05-21T12:46:20.364Z,30.12
2018-05-21T12:47:20.352Z,30.79
2018-05-21T12:48:20.338Z,31.10
2018-05-21T12:49:20.330Z,31.18
2018-05-21T12:50:20.333Z,31.38
2018-05-21T12:51:20.313Z,31.40
2018-05-21T12:52:20.317Z,31.50